sensor_id;sensor_type;location;lat;lon;timestamp;pressure;altitude;pressure_sealevel;temperature;humidity
73332;BME280;61560;33.718;73.040;2023-03-15T00:00:18;94430.84;;;18.77;48.07
73332;BME280;61560;33.718;73.040;2023-03-15T00:02:45;94434.41;;;18.77;48.32
73332;BME280;61560;33.718;73.040;2023-03-15T00:05:12;94434.69;;;18.79;48.40
73332;BME280;61560;33.718;73.040;2023-03-15T00:07:39;94439.75;;;18.81;48.48
73332;BME280;61560;33.718;73.040;2023-03-15T00:10:06;94444.19;;;18.64;49.09
73332;BME280;61560;33.718;73.040;2023-03-15T00:12:33;94435.28;;;18.60;49.29
73332;BME280;61560;33.718;73.040;2023-03-15T00:14:59;94432.63;;;18.65;48.95
73332;BME280;61560;33.718;73.040;2023-03-15T00:17:26;94436.16;;;18.66;49.24
73332;BME280;61560;33.718;73.040;2023-03-15T00:19:52;94449.69;;;18.49;50.13
73332;BME280;61560;33.718;73.040;2023-03-15T00:22:20;94445.88;;;18.47;50.38
73332;BME280;61560;33.718;73.040;2023-03-15T00:24:48;94447.56;;;18.44;50.29
73332;BME280;61560;33.718;73.040;2023-03-15T00:27:15;94439.72;;;18.43;50.26
73332;BME280;61560;33.718;73.040;2023-03-15T00:29:41;94443.38;;;18.49;49.75
73332;BME280;61560;33.718;73.040;2023-03-15T00:32:08;94444.63;;;18.48;49.65
73332;BME280;61560;33.718;73.040;2023-03-15T00:34:35;94446.47;;;18.51;49.44
73332;BME280;61560;33.718;73.040;2023-03-15T00:37:02;94448.75;;;18.52;49.20
73332;BME280;61560;33.718;73.040;2023-03-15T00:39:28;94453.22;;;18.50;49.28
73332;BME280;61560;33.718;73.040;2023-03-15T00:41:55;94455.13;;;18.44;49.15
73332;BME280;61560;33.718;73.040;2023-03-15T00:44:24;94456.78;;;18.41;49.41
73332;BME280;61560;33.718;73.040;2023-03-15T00:46:53;94463.59;;;18.40;49.89
73332;BME280;61560;33.718;73.040;2023-03-15T00:49:19;94473.31;;;18.36;50.25
73332;BME280;61560;33.718;73.040;2023-03-15T00:51:48;94463.47;;;18.35;50.05
73332;BME280;61560;33.718;73.040;2023-03-15T00:54:14;94469.78;;;18.35;49.95
73332;BME280;61560;33.718;73.040;2023-03-15T00:56:41;94467.47;;;18.34;50.22
73332;BME280;61560;33.718;73.040;2023-03-15T00:59:07;94465.19;;;18.32;50.64
73332;BME280;61560;33.718;73.040;2023-03-15T01:01:34;94471.31;;;18.36;50.73
73332;BME280;61560;33.718;73.040;2023-03-15T01:04:02;94471.94;;;18.31;50.64
73332;BME280;61560;33.718;73.040;2023-03-15T01:06:29;94476.59;;;18.25;50.52
73332;BME280;61560;33.718;73.040;2023-03-15T01:08:57;94471.25;;;18.22;50.30
73332;BME280;61560;33.718;73.040;2023-03-15T01:11:26;94487.22;;;18.27;50.31
73332;BME280;61560;33.718;73.040;2023-03-15T01:13:55;94490.00;;;18.27;50.07
73332;BME280;61560;33.718;73.040;2023-03-15T01:16:23;94483.69;;;18.26;50.14
73332;BME280;61560;33.718;73.040;2023-03-15T01:18:50;94495.53;;;18.27;50.22
73332;BME280;61560;33.718;73.040;2023-03-15T01:21:19;94482.34;;;18.22;50.20
73332;BME280;61560;33.718;73.040;2023-03-15T01:23:46;94490.16;;;18.23;50.06
73332;BME280;61560;33.718;73.040;2023-03-15T01:26:15;94487.88;;;18.22;49.98
73332;BME280;61560;33.718;73.040;2023-03-15T01:28:43;94492.47;;;18.25;49.92
73332;BME280;61560;33.718;73.040;2023-03-15T01:31:17;94501.38;;;18.29;49.89
73332;BME280;61560;33.718;73.040;2023-03-15T01:33:45;94488.78;;;18.28;49.88
73332;BME280;61560;33.718;73.040;2023-03-15T01:36:12;94506.78;;;18.32;49.93
73332;BME280;61560;33.718;73.040;2023-03-15T01:38:40;94497.97;;;18.34;49.85
73332;BME280;61560;33.718;73.040;2023-03-15T01:41:10;94500.28;;;18.35;50.06
73332;BME280;61560;33.718;73.040;2023-03-15T01:43:38;94506.41;;;18.39;50.32
73332;BME280;61560;33.718;73.040;2023-03-15T01:46:25;94513.50;;;18.40;50.68
73332;BME280;61560;33.718;73.040;2023-03-15T01:52:04;94508.22;;;18.51;50.39
73332;BME280;61560;33.718;73.040;2023-03-15T01:54:56;94516.97;;;18.59;50.71
73332;BME280;61560;33.718;73.040;2023-03-15T01:57:36;94526.66;;;18.63;50.45
73332;BME280;61560;33.718;73.040;2023-03-15T02:00:17;94528.44;;;18.75;50.40
73332;BME280;61560;33.718;73.040;2023-03-15T02:02:59;94529.81;;;18.95;50.53
73332;BME280;61560;33.718;73.040;2023-03-15T02:05:35;94529.16;;;19.23;49.69
73332;BME280;61560;33.718;73.040;2023-03-15T02:08:07;94535.63;;;19.44;49.22
73332;BME280;61560;33.718;73.040;2023-03-15T02:10:41;94533.66;;;19.59;48.57
73332;BME280;61560;33.718;73.040;2023-03-15T02:13:12;94535.28;;;19.66;47.79
73332;BME280;61560;33.718;73.040;2023-03-15T02:15:39;94541.78;;;19.63;47.73
73332;BME280;61560;33.718;73.040;2023-03-15T02:18:16;94544.59;;;19.77;47.49
73332;BME280;61560;33.718;73.040;2023-03-15T02:23:53;94554.66;;;20.04;46.80
73332;BME280;61560;33.718;73.040;2023-03-15T02:29:00;94550.34;;;20.17;47.32
73332;BME280;61560;33.718;73.040;2023-03-15T02:31:27;94551.50;;;20.25;47.38
73332;BME280;61560;33.718;73.040;2023-03-15T02:33:57;94559.56;;;20.38;46.59
73332;BME280;61560;33.718;73.040;2023-03-15T02:36:26;94565.56;;;20.51;45.89
73332;BME280;61560;33.718;73.040;2023-03-15T02:38:56;94562.09;;;20.56;46.30
73332;BME280;61560;33.718;73.040;2023-03-15T02:41:41;94573.66;;;20.69;46.46
73332;BME280;61560;33.718;73.040;2023-03-15T02:44:22;94566.16;;;20.75;45.79
73332;BME280;61560;33.718;73.040;2023-03-15T02:46:52;94584.47;;;20.82;44.62
73332;BME280;61560;33.718;73.040;2023-03-15T02:49:27;94576.97;;;20.88;45.30
73332;BME280;61560;33.718;73.040;2023-03-15T02:51:57;94585.09;;;21.06;44.61
73332;BME280;61560;33.718;73.040;2023-03-15T02:54:23;94592.22;;;21.27;43.62
73332;BME280;61560;33.718;73.040;2023-03-15T02:56:53;94594.16;;;21.41;43.48
73332;BME280;61560;33.718;73.040;2023-03-15T02:59:19;94597.66;;;21.56;43.41
73332;BME280;61560;33.718;73.040;2023-03-15T03:01:47;94596.56;;;21.74;42.79
73332;BME280;61560;33.718;73.040;2023-03-15T03:04:13;94593.88;;;21.79;42.12
73332;BME280;61560;33.718;73.040;2023-03-15T03:06:40;94598.31;;;21.91;42.38
73332;BME280;61560;33.718;73.040;2023-03-15T03:09:16;94600.47;;;22.02;41.81
73332;BME280;61560;33.718;73.040;2023-03-15T03:11:43;94601.56;;;22.10;42.01
73332;BME280;61560;33.718;73.040;2023-03-15T03:14:09;94608.31;;;22.29;41.97
73332;BME280;61560;33.718;73.040;2023-03-15T03:16:40;94610.94;;;22.38;41.07
73332;BME280;61560;33.718;73.040;2023-03-15T03:19:09;94610.78;;;22.47;41.27
73332;BME280;61560;33.718;73.040;2023-03-15T03:21:40;94613.78;;;22.69;41.03
73332;BME280;61560;33.718;73.040;2023-03-15T03:24:11;94623.34;;;22.94;40.93
73332;BME280;61560;33.718;73.040;2023-03-15T03:26:41;94626.81;;;23.20;41.16
73332;BME280;61560;33.718;73.040;2023-03-15T03:29:13;94638.72;;;23.57;39.67
73332;BME280;61560;33.718;73.040;2023-03-15T03:31:46;94633.63;;;24.15;38.29
73332;BME280;61560;33.718;73.040;2023-03-15T03:34:13;94627.34;;;24.81;37.04
73332;BME280;61560;33.718;73.040;2023-03-15T03:36:42;94632.69;;;25.12;36.23
73332;BME280;61560;33.718;73.040;2023-03-15T03:39:09;94633.38;;;25.46;35.59
73332;BME280;61560;33.718;73.040;2023-03-15T03:41:36;94643.94;;;25.91;35.01
73332;BME280;61560;33.718;73.040;2023-03-15T03:44:04;94644.03;;;26.73;34.05
73332;BME280;61560;33.718;73.040;2023-03-15T03:46:32;94642.78;;;27.58;31.79
73332;BME280;61560;33.718;73.040;2023-03-15T03:48:58;94634.47;;;28.69;30.47
73332;BME280;61560;33.718;73.040;2023-03-15T03:51:26;94643.34;;;29.95;28.66
73332;BME280;61560;33.718;73.040;2023-03-15T03:53:53;94644.16;;;31.09;26.37
73332;BME280;61560;33.718;73.040;2023-03-15T03:56:20;94639.84;;;32.06;24.48
73332;BME280;61560;33.718;73.040;2023-03-15T03:58:46;94639.97;;;32.87;24.08
73332;BME280;61560;33.718;73.040;2023-03-15T04:01:21;94645.78;;;33.55;23.10
73332;BME280;61560;33.718;73.040;2023-03-15T04:03:51;94642.66;;;34.36;22.06
73332;BME280;61560;33.718;73.040;2023-03-15T04:06:20;94646.41;;;34.93;21.42
73332;BME280;61560;33.718;73.040;2023-03-15T04:08:48;94651.38;;;35.99;19.60
73332;BME280;61560;33.718;73.040;2023-03-15T04:11:20;94652.94;;;36.51;18.22
73332;BME280;61560;33.718;73.040;2023-03-15T04:13:53;94645.88;;;37.13;17.57
73332;BME280;61560;33.718;73.040;2023-03-15T04:16:20;94651.41;;;37.74;16.98
73332;BME280;61560;33.718;73.040;2023-03-15T04:19:12;94650.13;;;37.85;16.43
73332;BME280;61560;33.718;73.040;2023-03-15T04:21:40;94644.31;;;38.21;16.28
73332;BME280;61560;33.718;73.040;2023-03-15T04:24:34;94641.19;;;38.55;15.98
73332;BME280;61560;33.718;73.040;2023-03-15T04:27:07;94645.34;;;39.40;15.52
73332;BME280;61560;33.718;73.040;2023-03-15T04:29:52;94645.72;;;39.65;15.39
73332;BME280;61560;33.718;73.040;2023-03-15T04:32:44;94650.34;;;40.11;14.77
73332;BME280;61560;33.718;73.040;2023-03-15T04:35:25;94649.09;;;40.14;14.42
73332;BME280;61560;33.718;73.040;2023-03-15T04:38:12;94650.47;;;40.34;14.50
73332;BME280;61560;33.718;73.040;2023-03-15T04:41:00;94648.69;;;40.71;13.22
73332;BME280;61560;33.718;73.040;2023-03-15T04:43:47;94658.56;;;40.68;13.90
73332;BME280;61560;33.718;73.040;2023-03-15T04:46:34;94649.97;;;41.01;13.35
73332;BME280;61560;33.718;73.040;2023-03-15T04:49:17;94659.16;;;41.65;12.89
73332;BME280;61560;33.718;73.040;2023-03-15T04:52:17;94649.78;;;41.99;12.25
73332;BME280;61560;33.718;73.040;2023-03-15T04:55:05;94648.63;;;42.27;12.49
73332;BME280;61560;33.718;73.040;2023-03-15T04:57:50;94649.75;;;42.45;12.84
73332;BME280;61560;33.718;73.040;2023-03-15T05:00:34;94653.16;;;42.78;12.27
73332;BME280;61560;33.718;73.040;2023-03-15T05:03:22;94651.81;;;42.68;12.37
73332;BME280;61560;33.718;73.040;2023-03-15T05:06:09;94648.44;;;42.71;12.66
73332;BME280;61560;33.718;73.040;2023-03-15T05:08:47;94643.41;;;42.72;12.96
73332;BME280;61560;33.718;73.040;2023-03-15T05:11:31;94639.13;;;42.24;13.44
73332;BME280;61560;33.718;73.040;2023-03-15T05:14:20;94647.91;;;42.15;13.50
73332;BME280;61560;33.718;73.040;2023-03-15T05:17:05;94650.16;;;42.76;12.63
73332;BME280;61560;33.718;73.040;2023-03-15T05:19:52;94645.56;;;42.96;12.27
73332;BME280;61560;33.718;73.040;2023-03-15T05:22:25;94654.84;;;42.58;13.43
73332;BME280;61560;33.718;73.040;2023-03-15T05:25:11;94649.28;;;42.25;13.40
73332;BME280;61560;33.718;73.040;2023-03-15T05:27:57;94652.91;;;41.91;13.35
73332;BME280;61560;33.718;73.040;2023-03-15T05:30:51;94644.66;;;41.97;13.53
73332;BME280;61560;33.718;73.040;2023-03-15T05:33:41;94664.38;;;41.56;13.47
73332;BME280;61560;33.718;73.040;2023-03-15T05:36:32;94656.00;;;41.16;14.18
73332;BME280;61560;33.718;73.040;2023-03-15T05:39:27;94657.28;;;40.80;14.35
73332;BME280;61560;33.718;73.040;2023-03-15T05:42:05;94656.06;;;40.11;14.94
73332;BME280;61560;33.718;73.040;2023-03-15T05:44:49;94657.56;;;39.41;15.65
73332;BME280;61560;33.718;73.040;2023-03-15T05:47:29;94654.50;;;38.79;16.03
73332;BME280;61560;33.718;73.040;2023-03-15T05:50:25;94652.66;;;38.36;16.79
73332;BME280;61560;33.718;73.040;2023-03-15T05:53:09;94652.25;;;37.57;17.39
73332;BME280;61560;33.718;73.040;2023-03-15T05:55:55;94645.16;;;36.95;17.85
73332;BME280;61560;33.718;73.040;2023-03-15T05:58:51;94656.34;;;36.50;18.29
73332;BME280;61560;33.718;73.040;2023-03-15T06:01:17;94656.66;;;35.78;18.73
73332;BME280;61560;33.718;73.040;2023-03-15T06:03:59;94647.59;;;34.83;19.87
73332;BME280;61560;33.718;73.040;2023-03-15T06:06:29;94653.31;;;34.20;20.26
73332;BME280;61560;33.718;73.040;2023-03-15T06:08:56;94650.16;;;33.63;21.83
73332;BME280;61560;33.718;73.040;2023-03-15T06:11:23;94634.97;;;33.31;21.57
73332;BME280;61560;33.718;73.040;2023-03-15T06:13:50;94640.81;;;33.02;22.25
73332;BME280;61560;33.718;73.040;2023-03-15T06:16:31;94643.19;;;32.76;22.47
73332;BME280;61560;33.718;73.040;2023-03-15T06:19:00;94643.91;;;32.69;22.89
73332;BME280;61560;33.718;73.040;2023-03-15T06:21:29;94635.59;;;32.63;22.73
73332;BME280;61560;33.718;73.040;2023-03-15T06:23:55;94632.25;;;32.44;23.10
73332;BME280;61560;33.718;73.040;2023-03-15T06:26:26;94638.19;;;32.18;23.03
73332;BME280;61560;33.718;73.040;2023-03-15T06:28:57;94624.03;;;32.18;23.32
73332;BME280;61560;33.718;73.040;2023-03-15T06:31:24;94624.38;;;32.14;23.14
73332;BME280;61560;33.718;73.040;2023-03-15T06:34:01;94623.81;;;32.16;23.45
73332;BME280;61560;33.718;73.040;2023-03-15T06:36:28;94621.00;;;32.16;23.29
73332;BME280;61560;33.718;73.040;2023-03-15T06:38:56;94623.25;;;32.17;23.60
73332;BME280;61560;33.718;73.040;2023-03-15T06:41:26;94620.31;;;31.95;23.46
73332;BME280;61560;33.718;73.040;2023-03-15T06:44:00;94620.13;;;31.72;23.73
73332;BME280;61560;33.718;73.040;2023-03-15T06:46:27;94611.16;;;31.81;24.05
73332;BME280;61560;33.718;73.040;2023-03-15T06:48:54;94606.75;;;31.73;24.16
73332;BME280;61560;33.718;73.040;2023-03-15T06:51:24;94610.94;;;31.79;23.47
73332;BME280;61560;33.718;73.040;2023-03-15T06:53:51;94604.50;;;31.79;22.96
73332;BME280;61560;33.718;73.040;2023-03-15T06:56:18;94603.19;;;31.80;22.67
73332;BME280;61560;33.718;73.040;2023-03-15T06:58:45;94607.09;;;31.69;22.33
73332;BME280;61560;33.718;73.040;2023-03-15T07:01:12;94606.63;;;31.58;22.96
73332;BME280;61560;33.718;73.040;2023-03-15T07:03:42;94600.50;;;31.74;23.04
73332;BME280;61560;33.718;73.040;2023-03-15T07:06:09;94597.06;;;31.68;23.09
73332;BME280;61560;33.718;73.040;2023-03-15T07:08:35;94596.91;;;31.74;23.44
73332;BME280;61560;33.718;73.040;2023-03-15T07:11:02;94597.53;;;31.52;24.01
73332;BME280;61560;33.718;73.040;2023-03-15T07:13:28;94586.16;;;31.23;25.38
73332;BME280;61560;33.718;73.040;2023-03-15T07:15:57;94590.59;;;31.11;24.85
73332;BME280;61560;33.718;73.040;2023-03-15T07:18:23;94587.16;;;31.05;25.03
73332;BME280;61560;33.718;73.040;2023-03-15T07:20:57;94585.41;;;31.02;25.07
73332;BME280;61560;33.718;73.040;2023-03-15T07:23:24;94582.53;;;30.95;24.84
73332;BME280;61560;33.718;73.040;2023-03-15T07:25:53;94580.16;;;31.06;25.59
73332;BME280;61560;33.718;73.040;2023-03-15T07:28:21;94575.69;;;31.11;25.84
73332;BME280;61560;33.718;73.040;2023-03-15T07:31:02;94567.25;;;31.18;25.96
73332;BME280;61560;33.718;73.040;2023-03-15T07:33:31;94575.25;;;31.27;26.26
73332;BME280;61560;33.718;73.040;2023-03-15T07:35:58;94566.44;;;31.38;26.33
73332;BME280;61560;33.718;73.040;2023-03-15T07:38:26;94566.59;;;31.33;26.45
73332;BME280;61560;33.718;73.040;2023-03-15T07:40:57;94559.69;;;31.13;26.75
73332;BME280;61560;33.718;73.040;2023-03-15T07:43:26;94552.59;;;30.99;27.13
73332;BME280;61560;33.718;73.040;2023-03-15T07:46:05;94553.88;;;30.98;27.46
73332;BME280;61560;33.718;73.040;2023-03-15T07:48:33;94544.16;;;30.86;27.59
73332;BME280;61560;33.718;73.040;2023-03-15T07:51:00;94541.38;;;30.94;27.67
73332;BME280;61560;33.718;73.040;2023-03-15T07:53:26;94535.88;;;30.88;27.12
73332;BME280;61560;33.718;73.040;2023-03-15T07:55:53;94540.53;;;30.65;27.61
73332;BME280;61560;33.718;73.040;2023-03-15T07:58:21;94527.63;;;30.56;27.84
73332;BME280;61560;33.718;73.040;2023-03-15T08:00:47;94526.00;;;30.61;27.98
73332;BME280;61560;33.718;73.040;2023-03-15T08:03:15;94528.63;;;30.59;27.10
73332;BME280;61560;33.718;73.040;2023-03-15T08:05:44;94517.91;;;30.65;27.24
73332;BME280;61560;33.718;73.040;2023-03-15T08:08:14;94513.84;;;30.73;28.05
73332;BME280;61560;33.718;73.040;2023-03-15T08:10:43;94505.88;;;30.85;28.35
73332;BME280;61560;33.718;73.040;2023-03-15T08:13:12;94505.53;;;30.89;29.19
73332;BME280;61560;33.718;73.040;2023-03-15T08:15:47;94498.06;;;30.78;28.99
73332;BME280;61560;33.718;73.040;2023-03-15T08:18:19;94490.47;;;30.73;28.49
73332;BME280;61560;33.718;73.040;2023-03-15T08:20:49;94485.44;;;30.58;28.56
73332;BME280;61560;33.718;73.040;2023-03-15T08:23:25;94483.38;;;30.59;28.92
73332;BME280;61560;33.718;73.040;2023-03-15T08:25:55;94471.59;;;30.68;28.37
73332;BME280;61560;33.718;73.040;2023-03-15T08:28:22;94469.38;;;30.74;28.39
73332;BME280;61560;33.718;73.040;2023-03-15T08:30:49;94465.81;;;30.81;28.42
73332;BME280;61560;33.718;73.040;2023-03-15T08:33:26;94460.94;;;30.82;28.49
73332;BME280;61560;33.718;73.040;2023-03-15T08:35:59;94460.16;;;30.81;28.38
73332;BME280;61560;33.718;73.040;2023-03-15T08:38:26;94451.22;;;30.90;28.08
73332;BME280;61560;33.718;73.040;2023-03-15T08:40:56;94447.75;;;30.84;27.86
73332;BME280;61560;33.718;73.040;2023-03-15T08:43:23;94440.47;;;30.68;28.29
73332;BME280;61560;33.718;73.040;2023-03-15T08:45:50;94436.63;;;30.58;28.44
73332;BME280;61560;33.718;73.040;2023-03-15T08:48:18;94441.78;;;30.46;28.82
73332;BME280;61560;33.718;73.040;2023-03-15T08:50:47;94438.97;;;30.46;28.63
73332;BME280;61560;33.718;73.040;2023-03-15T08:53:18;94428.22;;;30.45;28.90
73332;BME280;61560;33.718;73.040;2023-03-15T08:55:48;94436.69;;;30.45;28.88
73332;BME280;61560;33.718;73.040;2023-03-15T08:58:14;94431.47;;;30.49;28.96
73332;BME280;61560;33.718;73.040;2023-03-15T09:00:41;94430.00;;;30.55;29.27
73332;BME280;61560;33.718;73.040;2023-03-15T09:03:07;94417.19;;;30.54;28.85
73332;BME280;61560;33.718;73.040;2023-03-15T09:05:38;94409.66;;;30.57;29.54
73332;BME280;61560;33.718;73.040;2023-03-15T09:08:05;94413.81;;;30.56;29.36
73332;BME280;61560;33.718;73.040;2023-03-15T09:10:33;94402.03;;;30.44;29.26
73332;BME280;61560;33.718;73.040;2023-03-15T09:13:02;94400.31;;;30.41;30.02
73332;BME280;61560;33.718;73.040;2023-03-15T09:15:29;94400.22;;;30.34;30.31
73332;BME280;61560;33.718;73.040;2023-03-15T09:17:55;94393.00;;;30.25;30.27
73332;BME280;61560;33.718;73.040;2023-03-15T09:20:22;94393.06;;;30.12;30.39
73332;BME280;61560;33.718;73.040;2023-03-15T09:22:55;94392.38;;;30.19;30.57
73332;BME280;61560;33.718;73.040;2023-03-15T09:25:26;94388.59;;;30.17;30.10
73332;BME280;61560;33.718;73.040;2023-03-15T09:27:55;94384.59;;;30.12;30.15
73332;BME280;61560;33.718;73.040;2023-03-15T09:30:22;94396.09;;;30.14;29.64
73332;BME280;61560;33.718;73.040;2023-03-15T09:32:49;94396.09;;;30.14;29.88
73332;BME280;61560;33.718;73.040;2023-03-15T09:35:20;94395.31;;;30.14;29.88
73332;BME280;61560;33.718;73.040;2023-03-15T09:37:48;94384.31;;;30.03;29.16
73332;BME280;61560;33.718;73.040;2023-03-15T09:40:32;94382.16;;;29.96;29.54
73332;BME280;61560;33.718;73.040;2023-03-15T09:56:35;94368.59;;;29.94;29.85
73332;BME280;61560;33.718;73.040;2023-03-15T09:59:05;94362.53;;;29.90;29.87
73332;BME280;61560;33.718;73.040;2023-03-15T10:01:35;94360.38;;;29.83;30.07
73332;BME280;61560;33.718;73.040;2023-03-15T10:04:26;94363.00;;;29.81;29.87
73332;BME280;61560;33.718;73.040;2023-03-15T10:06:56;94358.25;;;29.76;30.49
73332;BME280;61560;33.718;73.040;2023-03-15T10:09:25;94353.91;;;29.75;30.64
73332;BME280;61560;33.718;73.040;2023-03-15T10:17:40;94346.06;;;29.81;30.41
73332;BME280;61560;33.718;73.040;2023-03-15T10:20:14;94341.31;;;29.76;30.80
73332;BME280;61560;33.718;73.040;2023-03-15T10:22:55;94342.72;;;29.69;30.67
73332;BME280;61560;33.718;73.040;2023-03-15T10:25:29;94348.81;;;29.60;31.19
73332;BME280;61560;33.718;73.040;2023-03-15T10:28:03;94334.22;;;29.49;31.09
73332;BME280;61560;33.718;73.040;2023-03-15T10:30:37;94335.88;;;29.44;31.29
73332;BME280;61560;33.718;73.040;2023-03-15T10:33:39;94326.63;;;29.44;31.24
73332;BME280;61560;33.718;73.040;2023-03-15T10:36:45;94325.34;;;29.45;31.22
73332;BME280;61560;33.718;73.040;2023-03-15T10:39:15;94331.34;;;29.41;31.58
73332;BME280;61560;33.718;73.040;2023-03-15T10:41:44;94325.03;;;29.35;31.98
73332;BME280;61560;33.718;73.040;2023-03-15T10:44:15;94320.16;;;29.36;32.90
73332;BME280;61560;33.718;73.040;2023-03-15T10:47:31;94322.00;;;29.33;32.74
73332;BME280;61560;33.718;73.040;2023-03-15T10:49:58;94322.13;;;29.28;33.25
73332;BME280;61560;33.718;73.040;2023-03-15T10:52:33;94321.72;;;29.24;33.15
73332;BME280;61560;33.718;73.040;2023-03-15T10:55:04;94322.06;;;29.20;33.07
73332;BME280;61560;33.718;73.040;2023-03-15T10:57:40;94318.69;;;29.22;33.28
73332;BME280;61560;33.718;73.040;2023-03-15T11:00:33;94314.88;;;29.19;33.29
73332;BME280;61560;33.718;73.040;2023-03-15T11:03:15;94321.19;;;29.12;32.92
73332;BME280;61560;33.718;73.040;2023-03-15T11:05:48;94315.22;;;29.02;33.77
73332;BME280;61560;33.718;73.040;2023-03-15T11:08:18;94317.09;;;29.00;33.83
73332;BME280;61560;33.718;73.040;2023-03-15T11:10:46;94311.75;;;28.96;33.48
73332;BME280;61560;33.718;73.040;2023-03-15T11:13:20;94316.75;;;28.90;33.11
73332;BME280;61560;33.718;73.040;2023-03-15T11:19:00;94308.66;;;28.87;33.19
73332;BME280;61560;33.718;73.040;2023-03-15T11:21:30;94305.19;;;28.81;33.42
73332;BME280;61560;33.718;73.040;2023-03-15T11:24:01;94301.50;;;28.73;32.68
73332;BME280;61560;33.718;73.040;2023-03-15T11:26:35;94302.06;;;28.71;33.35
73332;BME280;61560;33.718;73.040;2023-03-15T11:29:21;94305.41;;;28.70;33.03
73332;BME280;61560;33.718;73.040;2023-03-15T11:31:50;94302.16;;;28.66;33.42
73332;BME280;61560;33.718;73.040;2023-03-15T11:37:27;94298.47;;;28.58;32.90
73332;BME280;61560;33.718;73.040;2023-03-15T11:39:59;94298.25;;;28.56;32.61
73332;BME280;61560;33.718;73.040;2023-03-15T11:42:36;94300.06;;;28.53;32.90
73332;BME280;61560;33.718;73.040;2023-03-15T11:45:12;94303.44;;;28.52;33.01
73332;BME280;61560;33.718;73.040;2023-03-15T11:48:00;94299.84;;;28.51;33.45
73332;BME280;61560;33.718;73.040;2023-03-15T11:50:28;94297.94;;;28.46;33.69
73332;BME280;61560;33.718;73.040;2023-03-15T11:52:55;94305.94;;;28.42;33.63
73332;BME280;61560;33.718;73.040;2023-03-15T11:55:28;94310.38;;;28.38;33.19
73332;BME280;61560;33.718;73.040;2023-03-15T11:57:55;94309.19;;;28.33;33.11
73332;BME280;61560;33.718;73.040;2023-03-15T12:06:35;94311.03;;;28.17;33.47
73332;BME280;61560;33.718;73.040;2023-03-15T12:12:02;94319.34;;;28.10;33.81
73332;BME280;61560;33.718;73.040;2023-03-15T12:14:34;94319.97;;;28.03;34.08
73332;BME280;61560;33.718;73.040;2023-03-15T12:22:47;94328.69;;;27.86;35.55
73332;BME280;61560;33.718;73.040;2023-03-15T12:25:36;94323.69;;;27.79;36.14
73332;BME280;61560;33.718;73.040;2023-03-15T12:28:08;94324.88;;;27.71;36.49
73332;BME280;61560;33.718;73.040;2023-03-15T12:30:44;94326.47;;;27.66;36.52
73332;BME280;61560;33.718;73.040;2023-03-15T12:33:20;94332.41;;;27.63;36.29
73332;BME280;61560;33.718;73.040;2023-03-15T12:35:50;94328.16;;;27.56;36.64
73332;BME280;61560;33.718;73.040;2023-03-15T12:38:19;94334.41;;;27.49;37.28
73332;BME280;61560;33.718;73.040;2023-03-15T12:40:57;94338.31;;;27.46;37.43
73332;BME280;61560;33.718;73.040;2023-03-15T12:43:43;94348.34;;;27.41;37.48
73332;BME280;61560;33.718;73.040;2023-03-15T12:54:24;94346.97;;;27.11;38.83
73332;BME280;61560;33.718;73.040;2023-03-15T12:57:02;94351.66;;;27.03;39.10
73332;BME280;61560;33.718;73.040;2023-03-15T14:02:54;94443.47;;;24.83;44.70
73332;BME280;61560;33.718;73.040;2023-03-15T14:05:25;94448.56;;;24.85;44.33
73332;BME280;61560;33.718;73.040;2023-03-15T14:08:06;94451.09;;;24.83;44.79
73332;BME280;61560;33.718;73.040;2023-03-15T14:10:41;94459.25;;;24.86;44.47
73332;BME280;61560;33.718;73.040;2023-03-15T14:13:23;94459.47;;;24.88;44.98
73332;BME280;61560;33.718;73.040;2023-03-15T14:16:11;94464.59;;;24.84;44.77
73332;BME280;61560;33.718;73.040;2023-03-15T14:18:41;94468.69;;;24.83;44.78
73332;BME280;61560;33.718;73.040;2023-03-15T14:23:42;94488.53;;;24.85;44.91
73332;BME280;61560;33.718;73.040;2023-03-15T14:28:39;94492.34;;;24.88;45.67
73332;BME280;61560;33.718;73.040;2023-03-15T14:31:21;94493.63;;;24.87;45.72
73332;BME280;61560;33.718;73.040;2023-03-15T14:33:56;94493.38;;;24.85;45.81
73332;BME280;61560;33.718;73.040;2023-03-15T14:36:33;94503.53;;;24.88;46.13
73332;BME280;61560;33.718;73.040;2023-03-15T14:42:00;94498.44;;;24.92;46.21
73332;BME280;61560;33.718;73.040;2023-03-15T14:44:32;94509.16;;;24.93;46.28
73332;BME280;61560;33.718;73.040;2023-03-15T14:47:00;94515.53;;;24.88;46.97
73332;BME280;61560;33.718;73.040;2023-03-15T14:49:28;94513.75;;;24.85;47.34
73332;BME280;61560;33.718;73.040;2023-03-15T14:52:00;94513.75;;;24.85;47.67
73332;BME280;61560;33.718;73.040;2023-03-15T14:54:28;94513.25;;;24.81;47.66
73332;BME280;61560;33.718;73.040;2023-03-15T14:56:55;94526.50;;;24.81;47.85
73332;BME280;61560;33.718;73.040;2023-03-15T14:59:22;94521.91;;;24.78;48.23
73332;BME280;61560;33.718;73.040;2023-03-15T15:01:51;94527.78;;;24.74;48.42
73332;BME280;61560;33.718;73.040;2023-03-15T15:04:19;94513.00;;;24.68;48.38
73332;BME280;61560;33.718;73.040;2023-03-15T15:06:46;94520.38;;;24.66;48.73
73332;BME280;61560;33.718;73.040;2023-03-15T15:09:21;94521.13;;;24.66;48.79
73332;BME280;61560;33.718;73.040;2023-03-15T15:11:50;94525.44;;;24.67;48.52
73332;BME280;61560;33.718;73.040;2023-03-15T15:14:18;94518.59;;;24.63;48.67
73332;BME280;61560;33.718;73.040;2023-03-15T15:16:45;94519.09;;;24.61;48.69
73332;BME280;61560;33.718;73.040;2023-03-15T15:19:12;94520.38;;;24.60;48.35
73332;BME280;61560;33.718;73.040;2023-03-15T15:21:39;94520.66;;;24.57;48.55
73332;BME280;61560;33.718;73.040;2023-03-15T15:24:18;94522.19;;;24.52;48.05
73332;BME280;61560;33.718;73.040;2023-03-15T15:26:46;94527.28;;;24.48;48.30